Time;durP1;ratioP1;P1;durP2;ratioP2;P2;SDS_P1;SDS_P2;PMS_P1;PMS_P2;Temp;Humidity;BMP_temperature;BMP_pressure;BME280_temperature;BME280_humidity;BME280_pressure;Samples;Min_cycle;Max_cycle;Signal;HPM_P1;HPM_P2
2023/07/24 00:01:17;;;;;;;77.47;69.68;;;16.90;99.90;;;;;;5043865;28;20037;-64
2023/07/24 00:03:43;;;;;;;35.28;31.73;;;16.90;99.90;;;;;;5042921;28;20087;-63
2023/07/24 00:06:09;;;;;;;44.38;40.20;;;16.80;99.90;;;;;;5057979;28;20048;-57
2023/07/24 00:08:35;;;;;;;67.57;61.08;;;16.80;99.90;;;;;;5042138;28;20041;-60
2023/07/24 00:11:02;;;;;;;54.35;48.88;;;16.80;99.90;;;;;;5041603;28;20484;-62
2023/07/24 00:13:28;;;;;;;43.28;39.13;;;16.90;99.90;;;;;;5042300;28;20091;-64
2023/07/24 00:15:54;;;;;;;62.85;57.03;;;16.80;99.90;;;;;;5053971;28;20092;-55
2023/07/24 00:18:19;;;;;;;90.95;81.88;;;16.80;99.90;;;;;;5043576;28;20466;-62
2023/07/24 00:20:45;;;;;;;60.28;54.70;;;16.90;99.90;;;;;;5041264;28;20041;-64
2023/07/24 00:23:11;;;;;;;87.32;78.82;;;16.90;99.90;;;;;;5042309;28;20173;-55
2023/07/24 00:25:37;;;;;;;86.93;78.95;;;16.80;99.90;;;;;;5042018;28;20055;-65
2023/07/24 00:28:03;;;;;;;127.90;115.40;;;16.80;99.90;;;;;;5042634;28;20120;-55
2023/07/24 00:30:28;;;;;;;151.40;135.82;;;16.80;99.90;;;;;;5043100;28;20708;-62
2023/07/24 00:32:54;;;;;;;236.48;212.68;;;16.80;99.90;;;;;;5042644;28;20041;-51
2023/07/24 00:35:19;;;;;;;160.85;144.95;;;16.80;99.90;;;;;;5043201;28;20754;-62
2023/07/24 00:37:45;;;;;;;123.65;110.93;;;16.80;99.90;;;;;;5041627;28;20053;-61
2023/07/24 00:40:11;;;;;;;163.18;146.68;;;16.80;99.90;;;;;;5046731;28;20636;-60
2023/07/24 00:42:37;;;;;;;188.20;170.60;;;16.70;99.90;;;;;;5046708;28;20091;-64
2023/07/24 00:45:02;;;;;;;336.08;300.15;;;16.70;99.90;;;;;;5046934;28;20558;-53
2023/07/24 00:47:28;;;;;;;257.88;230.73;;;16.70;99.90;;;;;;5047321;28;20043;-58
2023/07/24 00:49:54;;;;;;;224.20;200.55;;;16.60;99.90;;;;;;5045600;28;20068;-61
2023/07/24 00:52:21;;;;;;;236.73;212.05;;;16.50;99.90;;;;;;5046137;28;20037;-61
2023/07/24 00:54:47;;;;;;;215.75;193.02;;;16.50;99.90;;;;;;5047009;28;20430;-57
2023/07/24 00:57:13;;;;;;;232.98;208.30;;;16.50;99.90;;;;;;5046822;28;20036;-62
2023/07/24 00:59:39;;;;;;;280.02;250.43;;;16.40;99.90;;;;;;5045682;28;20045;-60
2023/07/24 01:02:05;;;;;;;214.15;191.82;;;16.40;99.90;;;;;;5116966;22;20684;-59
2023/07/24 01:04:31;;;;;;;180.60;160.98;;;16.40;99.90;;;;;;5068310;28;20040;-60
2023/07/24 01:06:57;;;;;;;275.63;246.35;;;16.50;99.90;;;;;;5064051;28;20123;-56
2023/07/24 01:09:23;;;;;;;307.88;275.70;;;16.30;99.90;;;;;;5047117;28;20133;-58
2023/07/24 01:12:11;;;;;;;227.93;204.05;;;16.30;99.90;;;;;;5045752;28;20475;-58
2023/07/24 01:14:45;;;;;;;293.13;264.60;;;16.30;99.90;;;;;;5057380;28;20080;-55
2023/07/24 01:17:16;;;;;;;291.58;261.73;;;16.40;99.90;;;;;;5061835;28;20041;-56
2023/07/24 01:19:48;;;;;;;307.88;276.63;;;16.30;99.90;;;;;;5046248;28;20189;-57
2023/07/24 01:22:29;;;;;;;11.25;6.82;;;16.30;99.90;;;;;;5045608;28;20075;-59
2023/07/24 01:25:22;;;;;;;13.88;7.65;;;16.40;99.90;;;;;;5044969;28;20372;-60
2023/07/24 01:27:48;;;;;;;125.35;104.05;;;16.30;99.90;;;;;;5046203;28;20048;-60
2023/07/24 01:30:19;;;;;;;14.75;8.25;;;16.20;99.90;;;;;;5045464;28;20064;-60
2023/07/24 01:32:45;;;;;;;13.20;8.35;;;16.20;99.90;;;;;;5045021;28;20051;-60
2023/07/24 01:35:11;;;;;;;122.32;109.63;;;16.20;99.90;;;;;;5045285;28;20116;-60
2023/07/24 01:37:40;;;;;;;156.73;141.00;;;16.20;99.90;;;;;;5043724;28;20116;-60
2023/07/24 01:40:07;;;;;;;204.48;184.73;;;16.30;99.90;;;;;;5044892;28;20591;-58
2023/07/24 01:42:34;;;;;;;302.33;274.33;;;16.40;99.90;;;;;;5045930;28;20495;-60
2023/07/24 01:44:59;;;;;;;366.42;331.23;;;16.40;99.90;;;;;;5046081;28;20134;-61
2023/07/24 01:47:25;;;;;;;438.02;396.92;;;16.40;99.90;;;;;;5045329;28;20096;-57
2023/07/24 01:49:51;;;;;;;396.55;359.60;;;16.30;99.90;;;;;;5050170;28;20117;-56
2023/07/24 01:52:17;;;;;;;641.85;583.60;;;16.30;99.90;;;;;;5052323;28;20048;-59
2023/07/24 01:54:43;;;;;;;649.03;595.25;;;16.30;99.90;;;;;;5044677;28;20097;-61
2023/07/24 01:57:09;;;;;;;708.97;648.10;;;16.30;99.90;;;;;;5044400;28;20036;-59
2023/07/24 01:59:34;;;;;;;818.70;751.47;;;16.30;99.90;;;;;;5045054;28;20053;-61
2023/07/24 02:02:00;;;;;;;910.25;844.92;;;16.40;99.90;;;;;;5044484;28;20059;-59
2023/07/24 02:04:25;;;;;;;1184.53;999.90;;;16.40;99.90;;;;;;5044490;28;20241;-58
2023/07/24 02:06:51;;;;;;;1053.53;972.05;;;16.40;99.90;;;;;;5044265;28;20037;-62
2023/07/24 02:09:20;;;;;;;1159.22;999.90;;;16.40;99.90;;;;;;5044551;28;20044;-61
2023/07/24 02:11:46;;;;;;;614.65;558.78;;;16.40;99.90;;;;;;5044535;28;20045;-61
2023/07/24 02:14:13;;;;;;;920.92;847.35;;;16.40;99.90;;;;;;5045979;28;20373;-57
2023/07/24 02:16:39;;;;;;;893.78;821.92;;;16.40;99.90;;;;;;5052770;28;20048;-60
2023/07/24 02:19:05;;;;;;;841.03;771.53;;;16.40;99.90;;;;;;5045323;28;20087;-60
2023/07/24 02:21:31;;;;;;;778.97;717.60;;;16.40;99.90;;;;;;5044214;28;20041;-60
2023/07/24 02:23:57;;;;;;;999.58;919.17;;;16.40;99.90;;;;;;5045356;28;20491;-57
2023/07/24 02:26:23;;;;;;;1158.88;999.90;;;16.50;99.90;;;;;;5045743;28;20037;-61
2023/07/24 02:28:48;;;;;;;1208.82;999.90;;;16.50;99.90;;;;;;5044867;28;20423;-58
2023/07/24 02:31:14;;;;;;;999.35;922.97;;;16.50;99.90;;;;;;5043984;28;20037;-58
2023/07/24 02:33:40;;;;;;;1201.87;999.90;;;16.50;99.90;;;;;;5044266;28;20142;-61
2023/07/24 02:36:05;;;;;;;;;;;16.50;99.90;;;;;;5043151;28;20391;-57
2023/07/24 02:38:31;;;;;;;1295.53;999.90;;;16.50;99.90;;;;;;5042063;28;20463;-56
2023/07/24 02:40:57;;;;;;;1065.28;959.25;;;16.40;99.90;;;;;;5044499;28;20088;-60
2023/07/24 02:43:23;;;;;;;1150.18;999.90;;;16.40;99.90;;;;;;5042346;28;20123;-59
2023/07/24 02:45:48;;;;;;;879.10;813.30;;;16.40;99.90;;;;;;5043701;28;20124;-57
2023/07/24 02:48:14;;;;;;;892.20;824.92;;;16.50;99.90;;;;;;5042981;28;20803;-63
2023/07/24 02:50:40;;;;;;;17.60;13.73;;;16.50;99.90;;;;;;5043235;28;20114;-60
2023/07/24 02:53:05;;;;;;;817.58;754.75;;;16.40;99.90;;;;;;5057984;28;20749;-60
2023/07/24 02:55:31;;;;;;;18.60;13.40;;;16.40;99.90;;;;;;5043092;28;20081;-61
2023/07/24 02:57:56;;;;;;;17.23;14.07;;;16.40;99.90;;;;;;5043820;28;20072;-55
2023/07/24 03:00:22;;;;;;;14.98;13.30;;;16.40;99.90;;;;;;5042920;28;20051;-57
2023/07/24 03:02:48;;;;;;;16.30;12.90;;;16.40;99.90;;;;;;5042819;28;20060;-60
2023/07/24 03:05:13;;;;;;;14.00;12.50;;;16.30;99.90;;;;;;5042539;28;20049;-60
2023/07/24 03:07:39;;;;;;;14.23;12.82;;;16.30;99.90;;;;;;5043546;28;20063;-58
2023/07/24 03:10:05;;;;;;;14.73;12.43;;;16.30;99.90;;;;;;5044064;28;20048;-54
2023/07/24 03:12:30;;;;;;;17.20;12.52;;;16.30;99.90;;;;;;5043595;28;20128;-55
2023/07/24 03:14:56;;;;;;;14.27;12.05;;;16.30;99.90;;;;;;5049946;28;20055;-54
2023/07/24 03:17:22;;;;;;;16.60;12.75;;;16.30;99.90;;;;;;5049445;28;20041;-59
2023/07/24 03:19:49;;;;;;;14.50;12.48;;;16.30;99.90;;;;;;5043391;28;20055;-57
2023/07/24 03:22:15;;;;;;;16.92;12.93;;;16.20;99.90;;;;;;5042607;28;20041;-60
2023/07/24 03:24:40;;;;;;;14.77;13.10;;;16.20;99.90;;;;;;5044129;28;20571;-59
2023/07/24 03:27:06;;;;;;;15.60;12.98;;;16.30;99.90;;;;;;5044167;28;20155;-60
2023/07/24 03:29:32;;;;;;;15.32;13.23;;;16.20;99.90;;;;;;5043787;28;20052;-61
2023/07/24 03:31:57;;;;;;;15.90;13.73;;;16.20;99.90;;;;;;5043926;28;20120;-58
2023/07/24 03:34:23;;;;;;;17.05;13.77;;;16.40;99.90;;;;;;5043987;28;20575;-60
2023/07/24 03:36:48;;;;;;;15.85;13.43;;;16.30;99.90;;;;;;5043154;28;20545;-61
2023/07/24 03:39:14;;;;;;;15.07;13.48;;;16.30;99.90;;;;;;5042868;28;20041;-55
2023/07/24 03:41:41;;;;;;;17.83;13.70;;;16.30;99.90;;;;;;5044106;28;20115;-59
2023/07/24 03:44:07;;;;;;;15.07;13.10;;;16.30;99.90;;;;;;5059168;28;20483;-55
2023/07/24 03:46:33;;;;;;;16.02;14.05;;;16.30;99.90;;;;;;5043695;28;20250;-58
2023/07/24 03:48:59;;;;;;;15.90;13.85;;;16.20;99.90;;;;;;5043374;28;20045;-58
2023/07/24 03:51:24;;;;;;;15.70;13.63;;;16.30;99.90;;;;;;5042007;28;20044;-61
2023/07/24 03:53:50;;;;;;;19.58;13.05;;;16.40;99.90;;;;;;5043278;28;20040;-59
2023/07/24 03:56:16;;;;;;;14.70;12.95;;;16.40;99.90;;;;;;5043530;28;20122;-59
2023/07/24 03:58:41;;;;;;;15.50;13.25;;;16.40;99.90;;;;;;5043310;28;20115;-60
2023/07/24 04:01:08;;;;;;;16.35;13.70;;;16.40;99.90;;;;;;5043034;28;20127;-59
2023/07/24 04:03:34;;;;;;;15.02;13.38;;;16.40;99.90;;;;;;5043472;28;20061;-58
2023/07/24 04:06:00;;;;;;;14.52;12.88;;;16.40;99.90;;;;;;5043082;28;20091;-61
2023/07/24 04:08:26;;;;;;;16.20;13.35;;;16.40;99.90;;;;;;5057892;28;20041;-57
2023/07/24 04:10:52;;;;;;;14.00;12.20;;;16.50;99.90;;;;;;5043865;28;20486;-57
2023/07/24 04:13:18;;;;;;;13.82;12.18;;;16.40;99.90;;;;;;5042051;28;20088;-57
2023/07/24 04:15:46;;;;;;;13.70;12.20;;;16.40;99.90;;;;;;5054598;28;20067;-61
2023/07/24 04:18:12;;;;;;;15.30;11.82;;;16.40;99.90;;;;;;5043126;28;20397;-61
2023/07/24 04:20:37;;;;;;;16.52;12.45;;;16.30;99.90;;;;;;5043272;28;20045;-60
2023/07/24 04:23:03;;;;;;;14.70;12.00;;;16.40;99.90;;;;;;5042505;28;20056;-58
2023/07/24 04:25:29;;;;;;;13.13;11.70;;;16.30;99.90;;;;;;5041958;28;20106;-57
2023/07/24 04:27:54;;;;;;;14.10;12.30;;;16.60;99.90;;;;;;5043367;28;20140;-55
2023/07/24 04:30:20;;;;;;;14.05;11.75;;;16.40;99.90;;;;;;5042788;28;20076;-61
2023/07/24 04:32:46;;;;;;;13.18;11.75;;;16.30;99.90;;;;;;5042816;28;20071;-60
2023/07/24 04:35:11;;;;;;;13.98;12.07;;;16.40;99.90;;;;;;5043516;28;20128;-57
2023/07/24 04:37:37;;;;;;;14.25;11.82;;;16.40;99.90;;;;;;5042337;28;20089;-60
2023/07/24 04:40:04;;;;;;;14.05;11.13;;;16.40;99.90;;;;;;5042420;28;20136;-61
2023/07/24 04:42:30;;;;;;;13.93;10.80;;;16.40;99.90;;;;;;5043391;28;20045;-61
2023/07/24 04:44:55;;;;;;;13.30;11.55;;;16.40;99.90;;;;;;5042892;28;20044;-60
2023/07/24 04:47:21;;;;;;;13.18;11.15;;;16.40;99.90;;;;;;5042365;28;20127;-62
2023/07/24 04:49:47;;;;;;;13.40;11.57;;;16.50;99.90;;;;;;5042465;28;20067;-56
2023/07/24 04:52:12;;;;;;;14.60;11.55;;;16.50;99.90;;;;;;5042066;28;20204;-58
2023/07/24 04:54:38;;;;;;;12.52;11.23;;;16.50;99.90;;;;;;5043109;28;20055;-61
2023/07/24 04:57:04;;;;;;;12.10;10.68;;;16.50;99.90;;;;;;5042539;28;20037;-59
2023/07/24 04:59:29;;;;;;;13.75;11.10;;;16.60;99.90;;;;;;5043313;28;20064;-59
2023/07/24 05:01:55;;;;;;;14.02;10.98;;;16.60;99.90;;;;;;5042140;28;20065;-58
2023/07/24 05:04:21;;;;;;;13.48;11.68;;;16.60;99.90;;;;;;5041107;28;20407;-60
2023/07/24 05:06:47;;;;;;;13.30;11.55;;;16.50;99.90;;;;;;5041409;28;20045;-58
2023/07/24 05:09:12;;;;;;;12.45;11.13;;;16.60;99.90;;;;;;5041826;28;20049;-61
2023/07/24 05:11:38;;;;;;;12.98;11.52;;;16.60;99.90;;;;;;5042233;28;20044;-61
2023/07/24 05:14:04;;;;;;;14.02;11.40;;;16.60;99.90;;;;;;5044788;28;20040;-58
2023/07/24 05:16:31;;;;;;;17.65;11.40;;;16.70;99.90;;;;;;5050795;28;20076;-62
2023/07/24 05:18:56;;;;;;;13.02;11.02;;;16.60;99.90;;;;;;5041204;28;20691;-63
2023/07/24 05:21:22;;;;;;;15.00;11.77;;;16.60;99.90;;;;;;5041208;28;20037;-56
2023/07/24 05:23:47;;;;;;;14.70;11.32;;;16.60;99.90;;;;;;5042956;28;20044;-60
2023/07/24 05:26:13;;;;;;;14.30;11.50;;;16.50;99.90;;;;;;5046010;28;20507;-62
2023/07/24 05:28:39;;;;;;;13.40;11.27;;;16.60;99.90;;;;;;5046489;28;20229;-59
2023/07/24 05:31:05;;;;;;;13.32;11.10;;;16.70;99.90;;;;;;5045897;28;20041;-58
2023/07/24 05:33:31;;;;;;;12.23;10.93;;;16.70;99.90;;;;;;5046419;28;20053;-59
2023/07/24 05:35:59;;;;;;;13.82;11.05;;;16.60;99.90;;;;;;5046205;28;20131;-60
2023/07/24 05:38:24;;;;;;;12.60;11.32;;;16.60;99.90;;;;;;5045050;28;20124;-58
2023/07/24 05:41:02;;;;;;;11.93;10.52;;;16.70;99.90;;;;;;5046366;28;20048;-59
2023/07/24 05:43:28;;;;;;;12.80;11.20;;;16.70;99.90;;;;;;5044839;28;20446;-58
2023/07/24 05:45:55;;;;;;;13.85;11.30;;;16.70;99.90;;;;;;5045567;28;20052;-59
2023/07/24 05:48:22;;;;;;;12.38;10.82;;;16.70;99.90;;;;;;5046037;28;20208;-59
2023/07/24 05:50:47;;;;;;;12.88;11.05;;;16.80;99.90;;;;;;5044353;28;20060;-61
2023/07/24 05:53:14;;;;;;;15.30;11.45;;;16.70;99.90;;;;;;5064992;28;20049;-58
2023/07/24 05:55:39;;;;;;;12.32;10.98;;;16.90;99.90;;;;;;5055026;28;20888;-61
2023/07/24 05:58:05;;;;;;;13.07;10.55;;;16.90;99.90;;;;;;5045892;28;20040;-60
2023/07/24 06:00:31;;;;;;;13.32;11.15;;;16.90;99.90;;;;;;5045452;28;20457;-59
2023/07/24 06:02:56;;;;;;;12.38;11.05;;;16.90;99.90;;;;;;5044963;28;20114;-58
2023/07/24 06:05:22;;;;;;;13.77;10.32;;;17.00;99.90;;;;;;5044154;28;20736;-61
2023/07/24 06:07:48;;;;;;;12.82;10.68;;;17.00;99.90;;;;;;5044683;28;20083;-55
2023/07/24 06:10:14;;;;;;;14.68;10.45;;;17.10;99.90;;;;;;5045753;28;20579;-61
2023/07/24 06:12:39;;;;;;;12.82;10.00;;;17.20;99.90;;;;;;5045001;28;20045;-61
2023/07/24 06:15:06;;;;;;;12.40;10.82;;;17.20;99.90;;;;;;5053052;28;20036;-60
2023/07/24 06:17:32;;;;;;;14.52;11.23;;;17.20;99.90;;;;;;5049157;28;20052;-60
2023/07/24 06:19:58;;;;;;;12.05;10.52;;;17.20;99.90;;;;;;5044947;28;20048;-58
2023/07/24 06:22:23;;;;;;;13.30;10.52;;;17.20;99.90;;;;;;5043839;28;20124;-58
2023/07/24 06:24:49;;;;;;;15.00;11.57;;;17.20;99.90;;;;;;5045301;28;20041;-60
2023/07/24 06:27:15;;;;;;;13.95;11.25;;;17.20;99.90;;;;;;5045038;28;20037;-60
2023/07/24 06:29:41;;;;;;;13.35;10.68;;;17.10;99.90;;;;;;5044674;28;20071;-60
2023/07/24 06:32:07;;;;;;;12.73;11.25;;;17.20;99.90;;;;;;5045663;28;20041;-59
2023/07/24 06:34:33;;;;;;;15.35;11.65;;;17.20;99.90;;;;;;5045455;28;20067;-61
2023/07/24 06:36:59;;;;;;;13.32;10.95;;;17.20;99.90;;;;;;5042913;28;20128;-56
2023/07/24 06:39:24;;;;;;;13.75;11.30;;;17.10;99.90;;;;;;5060524;28;20077;-58
2023/07/24 06:41:53;;;;;;;12.55;10.77;;;17.10;99.90;;;;;;5044991;28;20099;-61
2023/07/24 06:44:19;;;;;;;12.70;10.75;;;17.20;99.90;;;;;;5044248;28;20048;-58
2023/07/24 06:46:44;;;;;;;15.32;11.30;;;17.20;99.90;;;;;;5044946;28;20955;-60
2023/07/24 06:49:11;;;;;;;15.75;10.57;;;17.20;99.90;;;;;;5044906;28;20479;-57
2023/07/24 06:51:38;;;;;;;14.25;11.15;;;17.30;99.90;;;;;;5044439;28;20118;-61
2023/07/24 06:54:04;;;;;;;12.75;11.35;;;17.40;99.90;;;;;;5044387;28;20037;-62
2023/07/24 06:56:30;;;;;;;11.35;10.05;;;17.40;99.90;;;;;;5044414;28;20084;-60
2023/07/24 06:58:55;;;;;;;15.25;10.55;;;17.30;99.90;;;;;;5044916;28;20083;-57
2023/07/24 07:01:21;;;;;;;12.98;10.75;;;17.40;99.90;;;;;;5066095;28;20080;-55
2023/07/24 07:03:47;;;;;;;12.98;10.68;;;17.50;99.90;;;;;;5049628;28;20103;-62
2023/07/24 07:06:12;;;;;;;14.45;11.30;;;17.50;99.90;;;;;;5043240;28;20041;-60
2023/07/24 07:08:38;;;;;;;16.48;11.05;;;17.50;99.90;;;;;;5043822;28;20357;-62
2023/07/24 07:11:04;;;;;;;11.70;10.07;;;17.60;99.90;;;;;;5043777;28;20128;-61
2023/07/24 07:13:29;;;;;;;12.65;10.30;;;17.60;99.90;;;;;;5050075;28;20132;-57
2023/07/24 07:15:55;;;;;;;13.77;10.55;;;17.70;99.90;;;;;;5047186;28;20567;-62
2023/07/24 07:18:20;;;;;;;16.30;10.95;;;17.70;99.90;;;;;;5043792;28;20120;-58
2023/07/24 07:20:51;;;;;;;12.93;10.68;;;17.60;99.90;;;;;;5042078;28;20564;-58
2023/07/24 07:23:17;;;;;;;11.40;9.70;;;17.70;99.90;;;;;;5054461;28;20044;-59
2023/07/24 07:25:45;;;;;;;12.05;10.30;;;17.70;99.90;;;;;;5044800;28;20048;-60
2023/07/24 07:28:15;;;;;;;12.13;10.68;;;17.80;99.90;;;;;;5043069;28;20098;-60
2023/07/24 07:30:42;;;;;;;14.77;10.80;;;17.80;99.90;;;;;;5043741;28;20043;-61
2023/07/24 07:33:08;;;;;;;12.35;10.45;;;17.80;99.90;;;;;;5043463;28;20091;-59
2023/07/24 07:35:34;;;;;;;13.88;10.20;;;17.80;99.90;;;;;;5043153;28;20111;-61
2023/07/24 07:38:00;;;;;;;14.05;10.75;;;17.90;99.90;;;;;;5052102;28;20047;-54
2023/07/24 07:40:26;;;;;;;14.90;10.88;;;17.90;99.90;;;;;;5045022;28;20132;-55
2023/07/24 07:42:56;;;;;;;13.70;10.00;;;17.80;99.90;;;;;;5042399;28;20041;-58
2023/07/24 07:45:23;;;;;;;14.13;10.15;;;17.90;99.90;;;;;;5042975;28;20040;-62
2023/07/24 07:47:49;;;;;;;14.63;10.90;;;17.90;99.90;;;;;;5044016;28;20037;-54
2023/07/24 07:50:14;;;;;;;15.57;10.60;;;18.00;99.90;;;;;;5043882;28;20052;-62
2023/07/24 07:52:40;;;;;;;18.23;11.75;;;17.90;99.90;;;;;;5041180;28;20056;-58
2023/07/24 07:55:06;;;;;;;14.30;11.13;;;18.00;99.90;;;;;;5058914;28;20430;-60
2023/07/24 07:57:37;;;;;;;14.85;11.65;;;18.00;99.90;;;;;;5061574;28;20041;-56
2023/07/24 08:00:05;;;;;;;16.60;10.88;;;18.10;99.90;;;;;;5062270;28;20044;-59
2023/07/24 08:02:31;;;;;;;16.60;10.70;;;18.10;99.90;;;;;;5061918;28;20514;-62
2023/07/24 08:04:57;;;;;;;12.77;9.95;;;18.20;99.90;;;;;;5062034;28;20059;-64
2023/07/24 08:07:23;;;;;;;14.57;10.00;;;18.30;99.90;;;;;;5059206;28;20127;-63
2023/07/24 08:09:49;;;;;;;14.32;9.60;;;18.30;99.90;;;;;;5042143;28;20074;-59
2023/07/24 08:12:15;;;;;;;14.73;9.82;;;18.50;99.90;;;;;;5056972;28;20028;-60
2023/07/24 08:14:40;;;;;;;14.07;9.50;;;18.50;99.90;;;;;;5058731;28;20048;-57
2023/07/24 08:17:06;;;;;;;15.13;10.82;;;18.60;99.90;;;;;;5048615;28;20532;-56
2023/07/24 08:19:31;;;;;;;13.65;10.10;;;18.60;99.90;;;;;;5040295;28;20655;-57
2023/07/24 08:21:57;;;;;;;14.38;10.50;;;18.60;99.90;;;;;;5042032;28;20068;-63
2023/07/24 08:24:23;;;;;;;14.45;11.23;;;18.70;99.90;;;;;;5040811;28;20041;-60
2023/07/24 08:26:48;;;;;;;15.07;10.07;;;18.90;99.90;;;;;;5042162;28;20048;-64
2023/07/24 08:29:14;;;;;;;15.23;10.68;;;18.90;99.90;;;;;;5042600;28;20128;-59
2023/07/24 08:31:40;;;;;;;14.90;10.88;;;19.00;99.90;;;;;;5043461;28;20472;-66
2023/07/24 08:34:05;;;;;;;11.02;9.75;;;19.00;99.90;;;;;;5042347;28;20068;-56
2023/07/24 08:36:31;;;;;;;13.10;9.73;;;19.10;99.90;;;;;;5041596;28;20037;-62
2023/07/24 08:38:56;;;;;;;12.88;9.93;;;19.20;99.90;;;;;;5042915;28;20509;-64
2023/07/24 08:41:22;;;;;;;14.85;10.15;;;19.20;99.90;;;;;;5041517;28;20060;-59
2023/07/24 08:43:49;;;;;;;15.50;10.35;;;19.30;99.90;;;;;;5041177;28;20059;-62
2023/07/24 08:46:16;;;;;;;15.75;9.55;;;19.30;99.90;;;;;;5057555;28;20044;-58
2023/07/24 08:48:42;;;;;;;15.50;10.38;;;19.20;99.90;;;;;;5040150;28;20749;-63
2023/07/24 08:51:12;;;;;;;17.08;9.98;;;19.30;99.90;;;;;;5042215;28;20065;-64
2023/07/24 08:53:40;;;;;;;11.23;9.90;;;19.30;99.90;;;;;;5050396;28;20103;-62
2023/07/24 08:56:08;;;;;;;12.52;9.40;;;19.30;99.90;;;;;;5041642;28;20044;-59
2023/07/24 08:58:34;;;;;;;12.90;9.73;;;19.30;99.90;;;;;;5040918;28;20102;-61
2023/07/24 09:01:01;;;;;;;14.10;9.25;;;19.30;99.90;;;;;;5053355;28;20044;-63
2023/07/24 09:03:26;;;;;;;11.52;8.88;;;19.20;99.90;;;;;;5053822;28;20052;-55
2023/07/24 09:05:52;;;;;;;12.95;9.35;;;19.20;99.90;;;;;;5043739;28;20204;-56
2023/07/24 09:08:30;;;;;;;13.23;9.27;;;19.20;99.90;;;;;;5057647;28;20033;-60
2023/07/24 09:10:55;;;;;;;12.30;9.25;;;19.20;99.90;;;;;;5046849;28;20045;-58
2023/07/24 09:13:21;;;;;;;15.13;9.55;;;19.30;99.90;;;;;;5046873;28;20471;-58
2023/07/24 09:15:47;;;;;;;14.25;9.43;;;19.30;99.90;;;;;;5057051;28;20669;-63
2023/07/24 09:18:12;;;;;;;12.80;9.20;;;19.40;99.90;;;;;;5053938;28;20200;-60
2023/07/24 09:20:40;;;;;;;15.68;9.45;;;19.40;99.90;;;;;;5044565;28;20059;-63
2023/07/24 09:23:06;;;;;;;12.15;8.35;;;19.50;99.90;;;;;;5045786;28;20276;-63
2023/07/24 09:25:36;;;;;;;11.02;8.90;;;19.60;99.90;;;;;;5045831;28;20404;-56
2023/07/24 09:28:12;;;;;;;11.15;8.55;;;19.70;99.90;;;;;;5045954;28;20450;-61
2023/07/24 09:30:39;;;;;;;13.55;9.05;;;19.80;99.90;;;;;;5046226;28;20056;-61
2023/07/24 09:33:05;;;;;;;13.80;8.98;;;19.90;99.90;;;;;;5061141;28;20084;-63
2023/07/24 09:35:32;;;;;;;13.18;9.10;;;19.90;99.90;;;;;;5045466;28;20087;-61
2023/07/24 09:38:07;;;;;;;15.02;9.15;;;19.90;99.90;;;;;;5045518;28;20133;-59
2023/07/24 09:40:40;;;;;;;12.15;8.15;;;20.00;99.90;;;;;;5060831;28;20049;-57
2023/07/24 09:43:22;;;;;;;10.85;8.50;;;20.10;99.90;;;;;;5055557;28;20119;-62
2023/07/24 09:45:49;;;;;;;13.05;7.93;;;20.20;99.90;;;;;;5065854;28;20080;-57
2023/07/24 09:48:16;;;;;;;11.75;8.10;;;20.20;99.90;;;;;;5066001;28;20045;-59
2023/07/24 09:50:45;;;;;;;13.18;7.40;;;20.30;99.90;;;;;;5058899;28;20052;-59
2023/07/24 09:53:38;;;;;;;13.05;7.72;;;20.40;99.90;;;;;;5065377;28;20105;-65
2023/07/24 09:56:05;;;;;;;12.15;8.00;;;20.40;99.90;;;;;;5053245;28;20041;-61
2023/07/24 09:58:36;;;;;;;12.90;7.15;;;20.40;99.90;;;;;;5058609;28;20403;-61
2023/07/24 10:01:05;;;;;;;14.43;7.53;;;20.60;99.90;;;;;;5065592;28;20499;-63
2023/07/24 10:03:35;;;;;;;14.18;7.35;;;20.60;99.90;;;;;;5063613;28;20109;-61
2023/07/24 10:06:02;;;;;;;14.30;7.70;;;20.60;99.90;;;;;;5059168;28;20399;-61
2023/07/24 10:08:28;;;;;;;13.73;7.40;;;20.80;99.90;;;;;;5063808;28;20086;-58
2023/07/24 10:10:53;;;;;;;13.40;7.35;;;20.90;99.90;;;;;;5062601;28;20119;-60
2023/07/24 10:13:21;;;;;;;9.10;6.50;;;21.20;99.90;;;;;;5066070;28;20407;-59
2023/07/24 10:15:48;;;;;;;10.80;6.97;;;21.50;99.90;;;;;;5054483;28;20048;-66
2023/07/24 10:18:16;;;;;;;11.25;6.80;;;21.80;99.90;;;;;;5064905;28;20048;-61
2023/07/24 10:20:42;;;;;;;9.98;6.70;;;21.90;99.90;;;;;;5063493;28;20141;-63
2023/07/24 10:23:09;;;;;;;9.73;6.50;;;22.10;99.90;;;;;;5065205;28;20041;-58
2023/07/24 10:25:43;;;;;;;10.25;6.60;;;22.10;99.90;;;;;;5064323;28;20252;-63
2023/07/24 10:28:11;;;;;;;10.00;5.80;;;22.20;99.90;;;;;;5063380;28;20487;-61
2023/07/24 10:30:38;;;;;;;8.93;5.03;;;22.30;99.90;;;;;;5064807;28;20036;-58
2023/07/24 10:33:08;;;;;;;9.00;5.13;;;22.50;99.90;;;;;;5064497;28;20080;-61
2023/07/24 10:35:42;;;;;;;8.70;5.38;;;22.70;99.90;;;;;;5052368;28;20053;-61
2023/07/24 10:38:08;;;;;;;8.63;4.93;;;22.90;99.90;;;;;;5064725;28;20056;-53
2023/07/24 10:40:34;;;;;;;11.25;5.47;;;23.00;99.90;;;;;;5064009;28;20144;-54
2023/07/24 10:43:08;;;;;;;8.75;5.55;;;23.20;99.90;;;;;;5064435;28;20259;-58
2023/07/24 10:45:47;;;;;;;8.68;4.88;;;23.30;99.90;;;;;;5079846;28;20047;-54
2023/07/24 10:48:13;;;;;;;7.18;4.57;;;23.50;99.90;;;;;;5063627;28;20044;-54
2023/07/24 10:50:43;;;;;;;8.95;4.63;;;23.50;99.90;;;;;;5063340;28;20044;-57
2023/07/24 10:53:15;;;;;;;7.25;4.53;;;23.50;99.90;;;;;;5064193;28;20422;-59
2023/07/24 10:55:42;;;;;;;8.18;4.30;;;23.60;99.90;;;;;;5063589;28;20399;-54
2023/07/24 10:58:08;;;;;;;7.68;4.03;;;23.70;99.90;;;;;;5064407;28;20044;-58
2023/07/24 11:00:34;;;;;;;6.97;4.32;;;23.80;99.90;;;;;;5064015;28;20049;-55
2023/07/24 11:03:00;;;;;;;7.40;4.40;;;23.80;99.90;;;;;;5062981;28;20052;-56
2023/07/24 11:05:26;;;;;;;7.30;4.63;;;23.60;99.90;;;;;;5063166;28;20052;-59
2023/07/24 11:07:52;;;;;;;6.00;4.13;;;23.50;99.90;;;;;;5064536;28;20047;-50
2023/07/24 11:10:19;;;;;;;736.50;666.40;;;23.50;99.90;;;;;;5064213;28;20048;-57
2023/07/24 11:12:45;;;;;;;10.68;4.40;;;23.30;99.90;;;;;;5063587;28;20170;-57
2023/07/24 11:15:12;;;;;;;9.82;5.15;;;23.30;99.90;;;;;;5057091;28;20127;-51
2023/07/24 11:17:42;;;;;;;6.90;5.00;;;23.40;99.90;;;;;;5045457;28;20044;-53
2023/07/24 11:20:13;;;;;;;7.47;4.80;;;23.50;99.60;;;;;;5041356;28;20045;-59
2023/07/24 11:22:40;;;;;;;6.38;4.10;;;23.50;99.40;;;;;;5042699;28;20037;-50
2023/07/24 11:25:07;;;;;;;7.43;4.50;;;23.50;99.30;;;;;;5044057;28;20045;-50
2023/07/24 11:27:33;;;;;;;9.00;4.57;;;23.30;99.40;;;;;;5043129;28;20395;-55
2023/07/24 11:29:58;;;;;;;7.00;4.55;;;23.20;99.90;;;;;;5043257;28;20411;-59
2023/07/24 11:32:24;;;;;;;8.40;4.65;;;23.00;99.90;;;;;;5043767;28;20049;-57
2023/07/24 11:34:52;;;;;;;8.85;4.75;;;23.00;99.90;;;;;;5043088;28;20040;-49
2023/07/24 11:37:18;;;;;;;6.00;4.38;;;23.00;99.90;;;;;;5058341;28;20162;-57
2023/07/24 11:39:58;;;;;;;9.30;5.57;;;23.00;99.90;;;;;;5043790;28;20049;-57
2023/07/24 11:42:26;;;;;;;9.25;5.32;;;23.10;99.90;;;;;;5042557;28;20048;-55
2023/07/24 11:44:52;;;;;;;10.48;5.70;;;23.10;99.90;;;;;;5059501;28;20041;-57
2023/07/24 11:47:17;;;;;;;8.05;4.82;;;23.10;99.90;;;;;;5043397;28;20523;-54
2023/07/24 11:49:48;;;;;;;8.23;5.10;;;23.00;99.90;;;;;;5043112;28;20114;-54
2023/07/24 11:52:14;;;;;;;8.52;5.28;;;22.90;99.90;;;;;;5042442;28;20055;-52
2023/07/24 11:54:39;;;;;;;8.07;5.53;;;22.90;99.90;;;;;;5043017;28;20049;-59
2023/07/24 11:57:16;;;;;;;10.52;6.80;;;22.80;99.90;;;;;;5043045;28;20035;-52
2023/07/24 11:59:41;;;;;;;13.30;6.00;;;22.70;99.90;;;;;;5043386;28;20051;-53
2023/07/24 12:02:10;;;;;;;12.52;5.47;;;22.50;99.90;;;;;;5042812;28;20435;-57
2023/07/24 12:04:36;;;;;;;9.20;5.80;;;22.30;99.90;;;;;;5043149;28;20053;-59
2023/07/24 12:07:07;;;;;;;11.88;6.10;;;22.10;99.90;;;;;;5042112;28;20395;-57
2023/07/24 12:09:33;;;;;;;14.00;6.50;;;22.10;99.90;;;;;;5043134;28;20439;-58
2023/07/24 12:11:59;;;;;;;12.05;6.95;;;22.00;99.90;;;;;;5042295;28;20048;-51
2023/07/24 12:14:25;;;;;;;9.88;7.07;;;22.00;99.90;;;;;;5046267;28;20071;-60
2023/07/24 12:17:03;;;;;;;10.43;6.38;;;22.20;99.90;;;;;;5050651;28;20518;-56
2023/07/24 12:19:29;;;;;;;10.70;6.00;;;22.30;99.90;;;;;;5042239;28;20809;-56
2023/07/24 12:21:54;;;;;;;11.82;7.00;;;22.40;99.90;;;;;;5042560;28;20049;-58
2023/07/24 12:24:20;;;;;;;12.88;6.65;;;22.50;99.90;;;;;;5043781;28;20037;-59
2023/07/24 12:26:46;;;;;;;9.60;6.25;;;22.70;99.90;;;;;;5042449;28;20084;-57